createdAt,value
2023-04-20T00:02:03.704Z,8.47
2023-04-20T00:05:08.209Z,8.07
2023-04-20T00:08:11.357Z,8.13
2023-04-20T00:11:13.989Z,8.57
2023-04-20T00:14:16.843Z,8.38
2023-04-20T00:17:19.813Z,8.43
2023-04-20T00:20:22.583Z,8.00
2023-04-20T00:23:25.234Z,9.40
2023-04-20T00:26:27.959Z,9.52
2023-04-20T00:29:30.787Z,9.73
2023-04-20T00:32:33.537Z,9.67
2023-04-20T00:35:36.274Z,9.43
2023-04-20T00:38:39.301Z,9.52
2023-04-20T00:41:42.195Z,9.57
2023-04-20T00:44:44.919Z,9.70
2023-04-20T00:47:47.635Z,9.80
2023-04-20T00:50:51.054Z,9.67
2023-04-20T00:53:53.777Z,9.93
2023-04-20T00:57:00.686Z,9.73
2023-04-20T01:00:03.863Z,8.80
2023-04-20T01:03:07.934Z,9.13
2023-04-20T01:06:11.213Z,9.00
2023-04-20T01:09:13.946Z,9.13
2023-04-20T01:12:16.950Z,8.70
2023-04-20T01:15:19.689Z,9.60
2023-04-20T01:18:23.015Z,9.53
2023-04-20T01:21:25.872Z,9.23
2023-04-20T01:24:28.584Z,8.75
2023-04-20T01:27:31.353Z,8.73
2023-04-20T01:30:34.839Z,9.45
2023-04-20T01:33:43.571Z,8.47
2023-04-20T01:36:46.471Z,8.37
2023-04-20T01:39:49.240Z,9.43
2023-04-20T01:42:51.987Z,8.52
2023-04-20T01:45:54.699Z,8.93
2023-04-20T01:48:57.985Z,8.60
2023-04-20T01:52:00.729Z,8.90
2023-04-20T01:55:03.494Z,8.88
2023-04-20T01:58:06.278Z,9.05
2023-04-20T02:01:09.024Z,8.63
2023-04-20T02:04:11.773Z,9.17
2023-04-20T02:07:14.417Z,9.10
2023-04-20T02:10:17.408Z,9.32
2023-04-20T02:13:20.063Z,8.48
2023-04-20T02:16:24.055Z,8.00
2023-04-20T02:19:26.902Z,7.70
2023-04-20T02:22:29.638Z,7.83
2023-04-20T02:25:32.380Z,8.00
2023-04-20T02:28:35.062Z,7.55
2023-04-20T02:31:37.787Z,7.32
2023-04-20T02:34:40.476Z,7.30
2023-04-20T02:37:44.056Z,7.03
2023-04-20T02:40:46.819Z,7.37
2023-04-20T02:43:49.466Z,6.57
2023-04-20T02:46:52.247Z,7.45
2023-04-20T02:49:54.997Z,7.73
2023-04-20T02:52:57.816Z,7.27
2023-04-20T02:56:00.642Z,6.82
2023-04-20T02:59:03.551Z,7.18
2023-04-20T03:02:06.367Z,7.87
2023-04-20T03:05:09.454Z,6.80
2023-04-20T03:08:12.205Z,6.23
2023-04-20T03:11:14.870Z,6.65
2023-04-20T03:14:17.664Z,6.80
2023-04-20T03:17:20.553Z,6.82
2023-04-20T03:20:23.416Z,6.37
2023-04-20T03:23:26.129Z,6.73
2023-04-20T03:26:28.698Z,6.37
2023-04-20T03:29:31.664Z,7.53
2023-04-20T03:32:34.559Z,7.15
2023-04-20T03:35:39.514Z,6.93
2023-04-20T03:38:42.426Z,6.37
2023-04-20T03:41:45.099Z,6.68
2023-04-20T03:44:47.975Z,7.20
2023-04-20T03:47:50.633Z,6.70
2023-04-20T03:50:53.371Z,6.97
2023-04-20T03:53:56.045Z,6.83
2023-04-20T03:56:58.782Z,6.62
2023-04-20T04:00:01.514Z,7.07
2023-04-20T04:03:04.410Z,6.78
2023-04-20T04:06:07.750Z,6.90
2023-04-20T04:09:10.387Z,6.93
2023-04-20T04:12:13.118Z,6.57
2023-04-20T04:15:16.014Z,7.57
2023-04-20T04:18:18.704Z,7.60
2023-04-20T04:21:21.539Z,7.27
2023-04-20T04:24:24.284Z,8.57
2023-04-20T04:27:30.227Z,7.85
2023-04-20T04:30:33.222Z,7.45
2023-04-20T04:33:35.927Z,7.95
2023-04-20T04:36:38.562Z,8.60
2023-04-20T04:39:41.631Z,7.80
2023-04-20T04:42:45.555Z,7.75
2023-04-20T04:45:50.110Z,8.45
2023-04-20T04:48:53.163Z,6.93
2023-04-20T04:51:56.508Z,11.13
2023-04-20T04:54:59.460Z,8.93
2023-04-20T04:58:02.956Z,9.80
2023-04-20T05:01:05.789Z,11.95
2023-04-20T05:04:08.759Z,11.93
2023-04-20T05:07:11.699Z,13.03
2023-04-20T05:10:15.300Z,11.97
2023-04-20T05:13:18.207Z,13.70
2023-04-20T05:16:20.994Z,13.60
2023-04-20T05:19:23.682Z,13.62
2023-04-20T05:22:26.862Z,13.60
2023-04-20T05:25:30.210Z,13.23
2023-04-20T05:28:36.725Z,13.15
2023-04-20T05:31:39.483Z,13.57
2023-04-20T05:34:42.311Z,14.05
2023-04-20T05:37:45.117Z,13.60
2023-04-20T05:40:47.814Z,13.57
2023-04-20T05:43:50.578Z,13.43
2023-04-20T05:46:53.341Z,14.02
2023-04-20T05:49:56.014Z,12.73
2023-04-20T05:52:58.927Z,13.20
2023-04-20T05:56:01.582Z,13.40
2023-04-20T05:59:04.936Z,13.48
2023-04-20T06:02:07.971Z,12.52
2023-04-20T06:05:11.705Z,12.52
2023-04-20T06:08:14.691Z,11.70
2023-04-20T06:11:17.484Z,12.82
2023-04-20T06:14:20.295Z,12.93
2023-04-20T06:17:23.075Z,12.05
2023-04-20T06:20:25.838Z,12.90
2023-04-20T06:23:28.715Z,12.50
2023-04-20T06:26:31.584Z,12.75
2023-04-20T06:29:34.487Z,13.20
2023-04-20T06:32:38.194Z,12.77
2023-04-20T06:35:40.989Z,12.48
2023-04-20T06:38:43.640Z,12.87
2023-04-20T06:41:46.652Z,12.43
2023-04-20T06:44:49.364Z,12.82
2023-04-20T06:47:52.094Z,12.50
2023-04-20T06:50:54.851Z,12.85
2023-04-20T06:53:57.751Z,12.73
2023-04-20T06:57:00.752Z,14.15
2023-04-20T07:00:03.862Z,12.50
2023-04-20T07:03:07.068Z,13.38
2023-04-20T07:06:11.599Z,11.90
2023-04-20T07:09:14.451Z,12.60
2023-04-20T07:12:17.124Z,12.10
2023-04-20T07:15:19.964Z,12.45
2023-04-20T07:18:22.666Z,12.32
2023-04-20T07:21:25.376Z,13.10
2023-04-20T07:24:29.212Z,12.83
2023-04-20T07:27:35.992Z,12.10
2023-04-20T07:30:38.712Z,13.20
2023-04-20T07:33:41.722Z,13.27
2023-04-20T07:36:44.409Z,12.77
2023-04-20T07:39:47.380Z,13.13
2023-04-20T07:42:50.236Z,11.77
2023-04-20T07:45:53.121Z,11.55
2023-04-20T07:48:55.948Z,12.50
2023-04-20T07:52:09.265Z,12.50
2023-04-20T07:55:18.500Z,13.37
2023-04-20T07:58:21.858Z,12.30
2023-04-20T08:01:28.276Z,12.00
2023-04-20T08:04:31.470Z,12.63
2023-04-20T08:07:34.449Z,10.80
2023-04-20T08:10:37.501Z,11.40
2023-04-20T08:13:41.564Z,11.48
2023-04-20T08:16:44.253Z,11.43
2023-04-20T08:19:47.150Z,12.40
2023-04-20T08:22:50.888Z,11.55
2023-04-20T08:25:57.142Z,11.43
2023-04-20T08:29:00.553Z,11.52
2023-04-20T08:32:04.008Z,11.65
2023-04-20T08:35:07.650Z,12.07
2023-04-20T08:38:12.480Z,11.73
2023-04-20T08:41:18.266Z,13.67
2023-04-20T08:44:21.362Z,13.13
2023-04-20T08:47:24.188Z,12.98
2023-04-20T08:50:26.878Z,12.75
2023-04-20T08:53:30.718Z,13.00
2023-04-20T08:56:38.186Z,13.40
2023-04-20T08:59:40.857Z,12.30
2023-04-20T09:02:52.045Z,12.65
2023-04-20T09:05:54.862Z,12.63
2023-04-20T09:08:57.547Z,12.57
2023-04-20T09:12:09.141Z,13.20
2023-04-20T09:15:12.019Z,12.82
2023-04-20T09:18:15.656Z,12.07
2023-04-20T09:21:18.387Z,13.27
2023-04-20T09:24:22.088Z,12.48
2023-04-20T09:27:26.434Z,10.03
2023-04-20T09:30:49.427Z,10.20
2023-04-20T09:34:12.373Z,13.40
2023-04-20T09:37:16.360Z,12.05
2023-04-20T09:40:21.679Z,12.27
2023-04-20T09:43:25.055Z,12.00
2023-04-20T09:46:31.806Z,11.12
2023-04-20T09:49:34.824Z,11.15
2023-04-20T09:52:41.193Z,10.38
2023-04-20T09:55:48.895Z,10.90
2023-04-20T09:58:52.108Z,10.43
2023-04-20T10:01:54.933Z,9.40
2023-04-20T10:04:59.083Z,10.23
2023-04-20T10:08:02.145Z,9.27
2023-04-20T10:11:04.802Z,10.35
2023-04-20T10:14:18.727Z,9.93
2023-04-20T10:17:32.993Z,10.50
2023-04-20T10:20:35.909Z,10.27
2023-04-20T10:24:01.067Z,10.07
2023-04-20T10:27:04.294Z,10.65
2023-04-20T10:30:11.503Z,10.67
2023-04-20T10:33:14.299Z,9.88
2023-04-20T10:36:28.362Z,11.63
2023-04-20T10:39:33.044Z,12.10
2023-04-20T10:42:43.687Z,11.95
2023-04-20T10:45:46.394Z,11.30
2023-04-20T10:48:55.916Z,11.43
2023-04-20T10:51:59.429Z,11.88
2023-04-20T10:55:02.911Z,12.55
2023-04-20T10:58:05.716Z,11.48
2023-04-20T11:01:10.157Z,10.73
2023-04-20T11:04:14.477Z,11.15
2023-04-20T11:07:19.004Z,12.05
2023-04-20T11:10:23.500Z,10.60
2023-04-20T11:13:29.301Z,11.57
2023-04-20T11:16:44.306Z,11.03
2023-04-20T11:19:51.697Z,11.57
2023-04-20T11:23:00.279Z,11.52
2023-04-20T11:26:02.934Z,11.73
2023-04-20T11:29:06.020Z,11.48
2023-04-20T11:32:10.528Z,12.73
2023-04-20T11:35:13.645Z,11.30
2023-04-20T11:38:29.827Z,12.10
2023-04-20T11:41:32.501Z,11.90
2023-04-20T11:44:37.043Z,12.60
2023-04-20T11:47:41.248Z,12.47
2023-04-20T11:50:44.316Z,11.75
2023-04-20T11:53:47.063Z,11.88
2023-04-20T11:56:49.885Z,20.58
2023-04-20T11:59:53.401Z,12.52
2023-04-20T12:02:56.266Z,12.33
2023-04-20T12:05:59.023Z,21.70
2023-04-20T12:09:01.775Z,11.63
2023-04-20T12:12:05.423Z,11.30
2023-04-20T12:15:08.845Z,11.45
2023-04-20T12:18:11.674Z,11.10
2023-04-20T12:21:14.751Z,11.43
2023-04-20T12:24:17.464Z,10.45
2023-04-20T12:27:20.630Z,9.98
2023-04-20T12:30:23.487Z,9.77
2023-04-20T12:33:26.246Z,9.97
2023-04-20T12:36:29.117Z,11.20
2023-04-20T12:39:32.190Z,10.35
2023-04-20T12:42:35.038Z,10.30
2023-04-20T12:45:37.843Z,9.45
2023-04-20T12:48:41.552Z,9.53
2023-04-20T12:51:44.256Z,10.00
2023-04-20T12:54:47.133Z,9.15
2023-04-20T12:57:49.882Z,9.55
2023-04-20T13:00:52.735Z,10.02
2023-04-20T13:03:56.307Z,8.87
2023-04-20T13:06:59.180Z,10.25
2023-04-20T13:10:01.874Z,9.82
2023-04-20T13:13:05.109Z,9.57
2023-04-20T13:16:07.970Z,8.95
2023-04-20T13:19:10.856Z,9.93
2023-04-20T13:22:18.094Z,10.02
2023-04-20T13:25:23.354Z,9.75
2023-04-20T13:28:26.204Z,8.93
2023-04-20T13:31:31.360Z,8.68
2023-04-20T13:34:34.214Z,7.90
2023-04-20T13:37:39.012Z,8.00
2023-04-20T13:40:42.585Z,7.82
2023-04-20T13:43:45.635Z,7.80
2023-04-20T13:46:48.773Z,9.07
2023-04-20T13:49:53.638Z,8.27
2023-04-20T13:52:56.437Z,8.77
2023-04-20T13:56:00.051Z,8.30
2023-04-20T13:59:05.470Z,7.32
2023-04-20T14:02:08.832Z,8.70
2023-04-20T14:05:11.505Z,8.87
2023-04-20T14:08:14.646Z,8.27
2023-04-20T14:11:17.390Z,8.35
2023-04-20T14:14:20.709Z,8.25
2023-04-20T14:17:23.547Z,8.02
2023-04-20T14:20:27.307Z,10.93
2023-04-20T14:23:30.002Z,7.70
2023-04-20T14:26:33.112Z,8.05
2023-04-20T14:29:36.033Z,7.22
2023-04-20T14:32:38.897Z,7.78
2023-04-20T14:35:42.969Z,9.47
2023-04-20T14:38:46.152Z,8.82
2023-04-20T14:41:48.965Z,8.45
2023-04-20T14:44:51.717Z,9.05
2023-04-20T14:47:58.051Z,8.55
2023-04-20T14:51:00.744Z,8.77
2023-04-20T14:54:03.647Z,8.43
2023-04-20T14:57:06.345Z,8.90
2023-04-20T15:00:10.965Z,9.48
2023-04-20T15:03:14.038Z,8.70
2023-04-20T15:06:17.148Z,8.20
2023-04-20T15:09:20.113Z,9.10
2023-04-20T15:12:22.828Z,8.85
2023-04-20T15:15:31.966Z,8.40
2023-04-20T15:18:44.438Z,8.38
2023-04-20T15:21:47.143Z,8.87
2023-04-20T15:24:50.004Z,8.10
2023-04-20T15:27:52.844Z,8.35
2023-04-20T15:30:55.561Z,8.02
2023-04-20T15:34:00.046Z,6.15
2023-04-20T15:37:03.107Z,6.20
2023-04-20T15:40:06.906Z,5.50
2023-04-20T15:43:09.613Z,5.80
2023-04-20T15:46:12.570Z,6.30
2023-04-20T15:49:15.403Z,5.47
2023-04-20T15:52:18.264Z,5.50
2023-04-20T15:55:20.868Z,5.70
2023-04-20T15:58:23.870Z,6.20
2023-04-20T16:01:26.564Z,5.45
2023-04-20T16:04:29.395Z,6.20
2023-04-20T16:07:32.159Z,5.77
2023-04-20T16:10:34.972Z,5.80
2023-04-20T16:13:37.913Z,5.90
2023-04-20T16:16:40.869Z,5.82
2023-04-20T16:19:43.729Z,6.15
2023-04-20T16:22:46.627Z,6.10
2023-04-20T16:25:49.582Z,6.55
2023-04-20T16:28:54.327Z,6.78
2023-04-20T16:31:57.449Z,6.43
2023-04-20T16:35:00.925Z,6.62
2023-04-20T16:38:03.695Z,6.60
2023-04-20T16:41:06.577Z,6.85
2023-04-20T16:44:09.365Z,6.87
2023-04-20T16:47:12.331Z,6.85
2023-04-20T16:50:19.671Z,7.60
2023-04-20T16:53:22.666Z,6.60
2023-04-20T16:56:25.382Z,6.53
2023-04-20T16:59:29.136Z,6.70
2023-04-20T17:02:34.580Z,5.80
2023-04-20T17:05:42.252Z,5.78
2023-04-20T17:08:45.772Z,5.40
2023-04-20T17:11:48.564Z,5.15
2023-04-20T17:14:51.531Z,5.25
2023-04-20T17:17:54.365Z,4.78
2023-04-20T17:21:01.758Z,4.80
2023-04-20T17:24:04.604Z,4.60
2023-04-20T17:27:10.250Z,4.95
2023-04-20T17:30:16.375Z,5.10
2023-04-20T17:33:20.892Z,4.62
2023-04-20T17:36:26.915Z,4.93
2023-04-20T17:39:29.819Z,4.90
2023-04-20T17:42:32.542Z,5.03
2023-04-20T17:45:36.597Z,5.10
2023-04-20T17:48:43.359Z,5.45
2023-04-20T17:51:48.431Z,5.10
2023-04-20T17:54:55.455Z,5.10
2023-04-20T17:57:58.099Z,5.65
2023-04-20T18:01:01.695Z,5.12
2023-04-20T18:04:05.361Z,5.50
2023-04-20T18:07:08.287Z,5.62
2023-04-20T18:10:13.687Z,5.33
2023-04-20T18:13:16.789Z,6.22
2023-04-20T18:16:20.910Z,5.53
2023-04-20T18:19:23.766Z,5.93
2023-04-20T18:22:26.536Z,5.75
2023-04-20T18:25:29.392Z,5.77
2023-04-20T18:28:32.417Z,6.18
2023-04-20T18:31:35.551Z,6.30
2023-04-20T18:34:38.429Z,6.30
2023-04-20T18:37:41.726Z,6.12
2023-04-20T18:40:44.516Z,6.03
2023-04-20T18:43:49.823Z,6.70
2023-04-20T18:46:53.726Z,7.03
2023-04-20T18:49:57.277Z,6.82
2023-04-20T18:53:00.040Z,7.72
2023-04-20T18:56:03.335Z,8.10
2023-04-20T18:59:08.705Z,8.18
2023-04-20T19:02:13.758Z,8.52
2023-04-20T19:05:17.390Z,8.15
2023-04-20T19:08:20.489Z,8.20
2023-04-20T19:11:23.891Z,6.93
2023-04-20T19:14:27.597Z,7.30
2023-04-20T19:17:31.178Z,6.32
2023-04-20T19:20:35.755Z,6.95
2023-04-20T19:23:38.835Z,6.80
2023-04-20T19:26:41.834Z,6.53
2023-04-20T19:29:46.172Z,7.20
2023-04-20T19:32:51.762Z,7.15
2023-04-20T19:35:54.819Z,6.37
2023-04-20T19:38:58.540Z,6.55
2023-04-20T19:42:01.633Z,6.10
2023-04-20T19:45:04.826Z,6.22
2023-04-20T19:48:07.836Z,6.32
2023-04-20T19:51:11.857Z,6.97
2023-04-20T19:54:16.914Z,6.55
2023-04-20T19:57:27.152Z,6.57
2023-04-20T20:00:30.061Z,6.70
2023-04-20T20:03:33.145Z,6.72
2023-04-20T20:06:36.244Z,6.82
2023-04-20T20:09:40.111Z,7.75
2023-04-20T20:12:46.175Z,8.77
2023-04-20T20:15:48.918Z,7.82
2023-04-20T20:18:51.757Z,8.60
2023-04-20T20:21:54.668Z,7.37
2023-04-20T20:24:57.574Z,14.23
2023-04-20T20:28:06.738Z,9.40
2023-04-20T20:31:09.709Z,8.05
2023-04-20T20:34:12.352Z,9.43
2023-04-20T20:37:16.668Z,9.43
2023-04-20T20:40:19.484Z,10.30
2023-04-20T20:43:23.323Z,10.40
2023-04-20T20:46:26.811Z,10.88
2023-04-20T20:49:29.656Z,10.55
2023-04-20T20:52:32.279Z,13.45
2023-04-20T20:55:35.764Z,12.98
2023-04-20T20:58:38.435Z,13.23
2023-04-20T21:01:41.177Z,13.27
2023-04-20T21:04:46.876Z,13.07
2023-04-20T21:07:49.978Z,13.45
2023-04-20T21:10:52.823Z,13.35
2023-04-20T21:14:02.223Z,12.57
2023-04-20T21:17:05.392Z,11.55
2023-04-20T21:20:11.805Z,12.70
2023-04-20T21:23:14.969Z,12.23
2023-04-20T21:26:20.890Z,11.68
2023-04-20T21:29:24.720Z,12.87
2023-04-20T21:32:27.676Z,11.60
2023-04-20T21:35:30.302Z,11.70
2023-04-20T21:38:33.035Z,11.48
2023-04-20T21:41:35.923Z,10.88
2023-04-20T21:44:38.621Z,10.67
2023-04-20T21:47:44.217Z,10.20
2023-04-20T21:50:47.013Z,8.65
2023-04-20T21:53:50.094Z,9.05
2023-04-20T21:56:52.856Z,8.93
2023-04-20T21:59:55.460Z,8.70
2023-04-20T22:02:58.324Z,8.35
2023-04-20T22:06:01.400Z,7.70
2023-04-20T22:09:04.773Z,7.82
2023-04-20T22:12:09.163Z,8.30
2023-04-20T22:15:13.873Z,7.63
2023-04-20T22:18:18.932Z,7.62
2023-04-20T22:21:21.642Z,7.53
2023-04-20T22:24:24.302Z,8.15
2023-04-20T22:27:29.138Z,7.60
2023-04-20T22:30:31.964Z,7.77
2023-04-20T22:33:34.646Z,8.20
2023-04-20T22:36:37.304Z,8.15
2023-04-20T22:39:40.011Z,7.97
2023-04-20T22:42:42.656Z,7.57
2023-04-20T22:45:45.336Z,8.03
2023-04-20T22:48:49.190Z,7.65
2023-04-20T22:51:52.698Z,7.45
2023-04-20T22:54:55.462Z,8.18
2023-04-20T22:57:58.107Z,7.45
2023-04-20T23:01:01.156Z,7.60
2023-04-20T23:04:04.277Z,7.75
2023-04-20T23:07:08.360Z,7.22
2023-04-20T23:10:11.320Z,7.12
2023-04-20T23:13:17.018Z,7.47
2023-04-20T23:16:19.769Z,7.80
2023-04-20T23:19:22.696Z,8.13
2023-04-20T23:22:26.135Z,7.78
2023-04-20T23:25:28.823Z,8.13
2023-04-20T23:28:31.518Z,9.27
2023-04-20T23:31:34.217Z,9.37
2023-04-20T23:34:36.939Z,8.75
2023-04-20T23:37:39.604Z,8.80
2023-04-20T23:40:42.210Z,8.75
2023-04-20T23:43:45.002Z,8.77
2023-04-20T23:46:47.713Z,8.77
2023-04-20T23:49:50.519Z,8.13
2023-04-20T23:52:53.281Z,8.30
2023-04-20T23:55:56.009Z,8.82
2023-04-20T23:58:59.225Z,8.00
